createdAt,value
2017-12-10T00:02:04.821Z,9.73
2017-12-10T00:04:30.824Z,10.13
2017-12-10T00:06:56.788Z,9.90
2017-12-10T00:09:23.556Z,10.18
2017-12-10T00:11:50.248Z,10.20
2017-12-10T00:14:16.945Z,10.13
2017-12-10T00:16:43.168Z,10.80
2017-12-10T00:19:09.157Z,11.70
2017-12-10T00:21:35.132Z,11.45
2017-12-10T00:24:01.154Z,11.00
2017-12-10T00:26:27.104Z,10.90
2017-12-10T00:28:53.092Z,10.52
2017-12-10T00:31:19.068Z,11.35
2017-12-10T00:33:45.042Z,10.70
2017-12-10T00:36:11.773Z,11.75
2017-12-10T00:38:37.768Z,12.17
2017-12-10T00:41:03.746Z,11.45
2017-12-10T00:43:29.697Z,11.85
2017-12-10T00:45:55.711Z,11.03
2017-12-10T00:48:21.680Z,10.80
2017-12-10T00:50:48.402Z,12.15
2017-12-10T00:53:14.740Z,12.32
2017-12-10T00:55:40.712Z,12.80
2017-12-10T00:58:06.727Z,12.18
2017-12-10T01:00:32.712Z,12.88
2017-12-10T01:02:59.423Z,12.88
2017-12-10T01:05:25.396Z,12.32
2017-12-10T01:07:51.358Z,12.73
2017-12-10T01:10:17.352Z,13.13
2017-12-10T01:12:43.326Z,12.65
2017-12-10T01:15:09.291Z,12.18
2017-12-10T01:17:35.260Z,12.80
2017-12-10T01:20:01.456Z,12.88
2017-12-10T01:22:27.435Z,12.48
2017-12-10T01:24:53.381Z,13.20
2017-12-10T01:27:19.489Z,14.15
2017-12-10T01:29:45.460Z,12.70
2017-12-10T01:32:11.436Z,12.63
2017-12-10T01:34:37.408Z,12.65
2017-12-10T01:37:03.403Z,12.98
2017-12-10T01:39:29.392Z,12.50
2017-12-10T01:41:55.367Z,14.30
2017-12-10T01:44:22.106Z,13.90
2017-12-10T01:46:48.096Z,13.65
2017-12-10T01:49:14.376Z,13.40
2017-12-10T01:51:41.092Z,14.10
2017-12-10T01:54:07.069Z,13.93
2017-12-10T01:56:33.073Z,14.13
2017-12-10T01:58:59.049Z,14.10
2017-12-10T02:01:25.022Z,14.02
2017-12-10T02:03:50.991Z,14.13
2017-12-10T02:06:16.952Z,13.55
2017-12-10T02:08:42.992Z,14.55
2017-12-10T02:11:09.056Z,13.97
2017-12-10T02:13:35.020Z,13.65
2017-12-10T02:16:01.361Z,14.20
2017-12-10T02:18:27.362Z,13.50
2017-12-10T02:20:53.327Z,13.57
2017-12-10T02:23:19.296Z,14.32
2017-12-10T02:25:45.269Z,13.55
2017-12-10T02:28:11.220Z,14.27
2017-12-10T02:30:37.959Z,14.32
2017-12-10T02:33:04.684Z,14.50
2017-12-10T02:35:30.649Z,13.88
2017-12-10T02:37:56.876Z,13.20
2017-12-10T02:40:22.865Z,13.10
2017-12-10T02:42:49.573Z,13.40
2017-12-10T02:45:15.926Z,13.77
2017-12-10T02:47:42.645Z,13.70
2017-12-10T02:50:08.643Z,13.23
2017-12-10T02:52:34.812Z,12.90
2017-12-10T02:55:00.786Z,14.00
2017-12-10T02:57:26.771Z,14.10
2017-12-10T02:59:52.759Z,13.33
2017-12-10T03:02:18.753Z,13.10
2017-12-10T03:04:44.720Z,12.60
2017-12-10T03:07:11.444Z,13.00
2017-12-10T03:09:37.417Z,12.97
2017-12-10T03:12:03.428Z,12.95
2017-12-10T03:14:29.400Z,12.52
2017-12-10T03:16:55.353Z,13.03
2017-12-10T03:19:21.320Z,13.90
2017-12-10T03:21:47.300Z,13.55
2017-12-10T03:24:13.256Z,14.25
2017-12-10T03:26:39.516Z,12.88
2017-12-10T03:29:06.232Z,13.07
2017-12-10T03:31:32.222Z,12.20
2017-12-10T03:33:58.241Z,12.63
2017-12-10T03:36:24.228Z,12.70
2017-12-10T03:38:50.962Z,12.15
2017-12-10T03:41:17.717Z,11.40
2017-12-10T03:43:43.689Z,12.85
2017-12-10T03:46:09.689Z,12.87
2017-12-10T03:48:35.692Z,12.13
2017-12-10T03:51:01.671Z,12.55
2017-12-10T03:53:27.657Z,11.80
2017-12-10T03:55:53.673Z,12.68
2017-12-10T03:58:19.645Z,12.00
2017-12-10T04:00:46.348Z,12.17
2017-12-10T04:03:12.502Z,11.80
2017-12-10T04:05:39.232Z,11.33
2017-12-10T04:08:05.204Z,12.35
2017-12-10T04:10:31.209Z,11.80
2017-12-10T04:12:57.512Z,11.10
2017-12-10T04:15:24.228Z,12.45
2017-12-10T04:17:50.200Z,11.63
2017-12-10T04:20:16.484Z,11.50
2017-12-10T04:22:42.448Z,10.93
2017-12-10T04:25:08.426Z,12.93
2017-12-10T04:27:35.208Z,11.70
2017-12-10T04:30:01.185Z,11.30
2017-12-10T04:32:27.892Z,11.95
2017-12-10T04:34:53.921Z,11.57
2017-12-10T04:37:19.933Z,10.90
2017-12-10T04:39:45.896Z,11.07
2017-12-10T04:42:11.928Z,10.90
2017-12-10T04:44:37.881Z,10.40
2017-12-10T04:47:03.854Z,10.93
2017-12-10T04:49:29.872Z,11.40
2017-12-10T04:51:57.352Z,10.70
2017-12-10T04:54:23.327Z,10.70
2017-12-10T04:56:49.670Z,10.82
2017-12-10T04:59:15.624Z,10.98
2017-12-10T05:01:41.602Z,11.50
2017-12-10T05:04:07.589Z,11.70
2017-12-10T05:06:33.601Z,11.00
2017-12-10T05:08:59.600Z,11.70
2017-12-10T05:11:25.584Z,12.37
2017-12-10T05:13:53.051Z,12.00
2017-12-10T05:16:19.768Z,10.85
2017-12-10T05:18:45.748Z,11.67
2017-12-10T05:21:11.729Z,11.38
2017-12-10T05:23:38.437Z,11.10
2017-12-10T05:26:04.410Z,11.93
2017-12-10T05:28:30.367Z,11.82
2017-12-10T05:30:56.363Z,10.67
2017-12-10T05:33:22.510Z,11.45
2017-12-10T05:35:48.475Z,10.95
2017-12-10T05:38:15.204Z,10.80
2017-12-10T05:40:41.931Z,10.65
2017-12-10T05:43:07.912Z,11.52
2017-12-10T05:45:33.929Z,11.40
2017-12-10T05:47:59.957Z,11.90
2017-12-10T05:50:26.028Z,11.50
2017-12-10T05:52:52.007Z,11.55
2017-12-10T05:55:17.976Z,11.27
2017-12-10T05:57:44.742Z,11.90
2017-12-10T06:00:10.745Z,11.50
2017-12-10T06:02:36.692Z,11.30
2017-12-10T06:05:03.076Z,12.55
2017-12-10T06:07:29.808Z,11.50
2017-12-10T06:09:55.780Z,12.15
2017-12-10T06:12:22.882Z,11.52
2017-12-10T06:14:49.592Z,11.93
2017-12-10T06:17:15.562Z,11.20
2017-12-10T06:19:41.579Z,11.45
2017-12-10T06:22:07.544Z,11.95
2017-12-10T06:24:33.520Z,11.70
2017-12-10T06:27:01.172Z,11.80
2017-12-10T06:29:27.872Z,12.00
2017-12-10T06:31:53.870Z,10.80
2017-12-10T06:34:19.856Z,10.65
2017-12-10T06:36:45.814Z,11.97
2017-12-10T06:39:11.789Z,10.85
2017-12-10T06:41:38.509Z,11.40
2017-12-10T06:44:04.487Z,10.57
2017-12-10T06:46:30.475Z,10.70
2017-12-10T06:48:57.175Z,11.53
2017-12-10T06:51:23.148Z,10.88
2017-12-10T06:53:49.453Z,12.10
2017-12-10T06:56:16.188Z,11.30
2017-12-10T06:58:42.901Z,12.50
2017-12-10T07:01:08.894Z,11.70
2017-12-10T07:03:34.876Z,12.13
2017-12-10T07:06:00.873Z,11.80
2017-12-10T07:08:26.833Z,12.10
2017-12-10T07:10:52.848Z,11.95
2017-12-10T07:13:18.841Z,11.20
2017-12-10T07:15:45.804Z,11.45
2017-12-10T07:18:11.789Z,11.73
2017-12-10T07:20:37.752Z,11.70
2017-12-10T07:23:04.048Z,11.10
2017-12-10T07:25:30.028Z,11.60
2017-12-10T07:27:55.989Z,11.17
2017-12-10T07:30:21.989Z,10.68
2017-12-10T07:32:47.944Z,10.35
2017-12-10T07:35:14.671Z,10.33
2017-12-10T07:37:41.404Z,11.60
2017-12-10T07:40:07.356Z,11.40
2017-12-10T07:42:33.312Z,11.50
2017-12-10T07:44:59.405Z,10.63
2017-12-10T07:47:25.370Z,10.18
2017-12-10T07:49:51.344Z,10.70
2017-12-10T07:52:17.341Z,10.70
2017-12-10T07:54:44.087Z,11.43
2017-12-10T07:57:10.765Z,10.23
2017-12-10T07:59:36.737Z,11.15
2017-12-10T08:02:03.431Z,11.70
2017-12-10T08:04:29.416Z,11.40
2017-12-10T08:06:55.383Z,11.88
2017-12-10T08:09:21.398Z,11.33
2017-12-10T08:11:47.370Z,10.65
2017-12-10T08:14:13.678Z,11.43
2017-12-10T08:16:40.400Z,11.90
2017-12-10T08:19:06.365Z,10.98
2017-12-10T08:21:32.371Z,11.60
2017-12-10T08:23:58.341Z,12.30
2017-12-10T08:26:24.312Z,11.20
2017-12-10T08:28:50.288Z,10.93
2017-12-10T08:31:16.292Z,10.82
2017-12-10T08:33:42.280Z,11.20
2017-12-10T08:36:08.287Z,11.20
2017-12-10T08:38:35.012Z,10.80
2017-12-10T08:41:01.717Z,11.60
2017-12-10T08:43:27.964Z,11.48
2017-12-10T08:45:53.934Z,11.90
2017-12-10T08:48:19.892Z,11.50
2017-12-10T08:50:45.861Z,10.70
2017-12-10T08:53:11.812Z,11.10
2017-12-10T08:55:37.800Z,11.70
2017-12-10T08:58:03.776Z,11.40
2017-12-10T09:00:29.756Z,11.73
2017-12-10T09:02:55.724Z,11.10
2017-12-10T09:05:21.684Z,11.00
2017-12-10T09:07:47.638Z,10.70
2017-12-10T09:10:13.623Z,10.82
2017-12-10T09:12:39.576Z,10.30
2017-12-10T09:15:05.576Z,10.90
2017-12-10T09:17:31.520Z,8.93
2017-12-10T09:20:04.548Z,10.23
2017-12-10T09:22:31.285Z,9.07
2017-12-10T09:24:57.993Z,10.13
2017-12-10T09:27:23.945Z,9.43
2017-12-10T09:29:50.768Z,8.07
2017-12-10T09:32:16.724Z,8.48
2017-12-10T09:34:42.678Z,8.33
2017-12-10T09:37:08.692Z,8.50
2017-12-10T09:39:34.669Z,7.80
2017-12-10T09:42:01.364Z,7.70
2017-12-10T09:44:27.533Z,6.80
2017-12-10T09:46:54.240Z,7.05
2017-12-10T09:49:20.210Z,6.70
2017-12-10T09:51:46.337Z,6.00
2017-12-10T09:54:12.305Z,6.30
2017-12-10T09:56:38.264Z,6.20
2017-12-10T09:59:04.353Z,5.90
2017-12-10T10:01:30.343Z,5.18
2017-12-10T10:03:56.313Z,5.65
2017-12-10T10:06:23.041Z,5.72
2017-12-10T10:08:49.757Z,5.50
2017-12-10T10:11:15.724Z,5.80
2017-12-10T10:13:41.895Z,5.60
2017-12-10T10:16:08.481Z,5.37
2017-12-10T10:18:34.464Z,5.72
2017-12-10T10:21:00.426Z,5.55
2017-12-10T10:23:26.429Z,5.37
2017-12-10T10:25:53.144Z,4.90
2017-12-10T10:28:19.865Z,5.47
2017-12-10T10:30:46.417Z,5.03
2017-12-10T10:33:12.377Z,4.53
2017-12-10T10:35:38.344Z,4.82
2017-12-10T10:38:04.329Z,4.75
2017-12-10T10:40:30.512Z,4.40
2017-12-10T10:42:57.219Z,4.97
2017-12-10T10:45:23.246Z,4.72
2017-12-10T10:47:49.493Z,4.32
2017-12-10T10:50:15.452Z,4.60
2017-12-10T10:52:41.437Z,4.50
2017-12-10T10:55:08.160Z,4.40
2017-12-10T10:57:34.159Z,4.87
2017-12-10T11:00:00.120Z,4.90
2017-12-10T11:02:26.886Z,4.53
2017-12-10T11:04:52.845Z,4.40
2017-12-10T11:07:18.828Z,4.60
2017-12-10T11:09:44.828Z,4.40
2017-12-10T11:12:11.541Z,4.53
2017-12-10T11:14:37.532Z,4.78
2017-12-10T11:17:03.546Z,5.20
2017-12-10T11:19:29.495Z,4.90
2017-12-10T11:21:56.944Z,4.90
2017-12-10T11:24:23.296Z,4.63
2017-12-10T11:26:49.260Z,5.10
2017-12-10T11:29:15.220Z,4.10
2017-12-10T11:31:41.998Z,4.45
2017-12-10T11:34:08.448Z,4.70
2017-12-10T11:36:34.424Z,4.10
2017-12-10T11:39:00.575Z,4.50
2017-12-10T11:41:26.558Z,4.10
2017-12-10T11:43:52.556Z,3.92
2017-12-10T11:46:18.524Z,4.40
2017-12-10T11:48:45.257Z,3.93
2017-12-10T11:51:11.968Z,3.90
2017-12-10T11:53:37.947Z,4.10
2017-12-10T11:56:03.908Z,4.62
2017-12-10T11:58:29.870Z,4.63
2017-12-10T12:00:56.068Z,4.70
2017-12-10T12:03:22.029Z,4.32
2017-12-10T12:05:48.013Z,4.17
2017-12-10T12:08:14.784Z,4.32
2017-12-10T12:10:40.773Z,4.00
2017-12-10T12:13:07.504Z,4.20
2017-12-10T12:15:33.469Z,3.90
2017-12-10T12:17:59.769Z,3.80
2017-12-10T12:20:26.482Z,4.20
2017-12-10T12:22:52.440Z,4.10
2017-12-10T12:25:18.732Z,3.80
2017-12-10T12:27:44.744Z,3.70
2017-12-10T12:30:10.700Z,3.50
2017-12-10T12:32:37.550Z,3.72
2017-12-10T12:35:03.521Z,4.25
2017-12-10T12:37:29.504Z,4.20
2017-12-10T12:39:55.501Z,3.92
2017-12-10T12:42:22.213Z,3.93
2017-12-10T12:44:49.973Z,4.18
2017-12-10T12:47:15.965Z,4.53
2017-12-10T12:49:41.948Z,4.50
2017-12-10T12:52:07.907Z,4.50
2017-12-10T12:54:34.057Z,4.87
2017-12-10T12:57:00.033Z,4.40
2017-12-10T12:59:26.053Z,4.43
2017-12-10T13:01:52.012Z,4.28
2017-12-10T13:04:18.000Z,4.50
2017-12-10T13:06:43.969Z,4.60
2017-12-10T13:09:10.112Z,4.80
2017-12-10T13:11:36.818Z,4.80
2017-12-10T13:14:02.793Z,4.62
2017-12-10T13:16:28.789Z,4.93
2017-12-10T13:18:55.494Z,4.90
2017-12-10T13:21:22.250Z,4.83
2017-12-10T13:23:48.977Z,5.22
2017-12-10T13:26:15.016Z,4.70
2017-12-10T13:28:41.815Z,5.00
2017-12-10T13:31:07.762Z,4.78
2017-12-10T13:33:34.470Z,5.15
2017-12-10T13:36:00.437Z,13.13
2017-12-10T13:38:27.474Z,8.82
2017-12-10T13:40:54.186Z,7.12
2017-12-10T13:43:20.145Z,6.18
2017-12-10T13:45:46.886Z,5.30
2017-12-10T13:48:12.857Z,5.20
2017-12-10T13:50:38.833Z,4.70
2017-12-10T13:53:04.805Z,4.67
2017-12-10T13:55:30.788Z,4.87
2017-12-10T13:57:56.745Z,5.00
2017-12-10T14:00:22.700Z,5.00
2017-12-10T14:02:49.441Z,5.20
2017-12-10T14:05:16.136Z,4.87
2017-12-10T14:07:42.096Z,5.00
2017-12-10T14:10:08.847Z,4.93
2017-12-10T14:12:34.805Z,5.13
2017-12-10T14:15:00.773Z,5.00
2017-12-10T14:17:27.629Z,5.10
2017-12-10T14:19:53.588Z,5.28
2017-12-10T14:22:19.564Z,5.80
2017-12-10T14:24:45.861Z,5.20
2017-12-10T14:27:11.861Z,5.10
2017-12-10T14:29:37.844Z,5.20
2017-12-10T14:32:03.826Z,4.60
2017-12-10T14:34:30.552Z,5.10
2017-12-10T14:36:57.261Z,4.43
2017-12-10T14:39:23.233Z,4.62
2017-12-10T14:41:49.940Z,4.50
2017-12-10T14:44:15.916Z,4.57
2017-12-10T14:46:41.889Z,5.03
2017-12-10T14:49:07.852Z,4.70
2017-12-10T14:51:33.830Z,4.55
2017-12-10T14:53:59.821Z,4.80
2017-12-10T14:56:25.802Z,4.57
2017-12-10T14:58:51.745Z,5.20
2017-12-10T15:01:17.918Z,4.55
2017-12-10T15:03:43.894Z,5.25
2017-12-10T15:06:09.852Z,5.12
2017-12-10T15:08:36.206Z,5.40
2017-12-10T15:11:02.925Z,4.78
2017-12-10T15:13:28.872Z,4.60
2017-12-10T15:15:54.872Z,5.00
2017-12-10T15:18:21.622Z,4.80
2017-12-10T15:20:48.333Z,4.78
2017-12-10T15:23:14.320Z,4.77
2017-12-10T15:25:40.294Z,4.70
2017-12-10T15:28:07.029Z,4.43
2017-12-10T15:30:33.772Z,4.80
2017-12-10T15:33:00.501Z,4.65
2017-12-10T15:35:26.472Z,4.62
2017-12-10T15:37:52.460Z,4.50
2017-12-10T15:40:19.168Z,4.80
2017-12-10T15:42:45.301Z,4.60
2017-12-10T15:45:11.259Z,4.60
2017-12-10T15:47:37.229Z,4.60
2017-12-10T15:50:03.208Z,4.45
2017-12-10T15:52:29.182Z,4.32
2017-12-10T15:54:55.126Z,4.60
2017-12-10T15:57:21.216Z,4.32
2017-12-10T15:59:47.177Z,4.40
2017-12-10T16:02:13.162Z,4.80
2017-12-10T16:04:39.140Z,4.75
2017-12-10T16:07:05.115Z,4.50
2017-12-10T16:09:31.838Z,4.40
2017-12-10T16:11:57.808Z,4.73
2017-12-10T16:14:23.818Z,4.68
2017-12-10T16:16:49.785Z,4.90
2017-12-10T16:19:16.024Z,4.37
2017-12-10T16:21:41.981Z,4.40
2017-12-10T16:24:07.958Z,4.00
2017-12-10T16:26:34.030Z,20.90
2017-12-10T16:29:00.241Z,12.93
2017-12-10T16:31:26.208Z,3.85
2017-12-10T16:33:52.211Z,3.83
2017-12-10T16:36:18.176Z,3.90
2017-12-10T16:38:44.156Z,3.67
2017-12-10T16:41:10.424Z,5.00
2017-12-10T16:43:36.408Z,4.20
2017-12-10T16:46:02.398Z,4.10
2017-12-10T16:48:28.704Z,3.90
2017-12-10T16:50:55.420Z,4.10
2017-12-10T16:53:21.393Z,4.30
2017-12-10T16:55:47.385Z,4.37
2017-12-10T16:58:14.131Z,4.37
2017-12-10T17:00:40.890Z,4.50
2017-12-10T17:03:07.914Z,4.50
2017-12-10T17:05:33.866Z,4.70
2017-12-10T17:07:59.844Z,4.05
2017-12-10T17:10:26.572Z,4.25
2017-12-10T17:12:52.553Z,4.70
2017-12-10T17:15:18.525Z,4.65
2017-12-10T17:17:45.451Z,4.70
2017-12-10T17:20:11.413Z,4.40
2017-12-10T17:22:37.416Z,4.60
2017-12-10T17:25:04.139Z,4.40
2017-12-10T17:27:30.844Z,4.40
2017-12-10T17:29:56.824Z,3.80
2017-12-10T17:32:22.784Z,4.53
2017-12-10T17:34:48.780Z,4.78
2017-12-10T17:37:14.919Z,4.47
2017-12-10T17:39:40.876Z,4.40
2017-12-10T17:42:06.856Z,4.70
2017-12-10T17:44:32.849Z,4.60
2017-12-10T17:46:58.833Z,4.65
2017-12-10T17:49:24.780Z,4.45
2017-12-10T17:51:50.805Z,4.90
2017-12-10T17:54:16.773Z,4.50
2017-12-10T17:56:42.736Z,5.20
2017-12-10T17:59:08.957Z,4.70
2017-12-10T18:01:35.661Z,4.43
2017-12-10T18:04:01.645Z,4.40
2017-12-10T18:06:27.632Z,4.53
2017-12-10T18:08:54.325Z,4.40
2017-12-10T18:11:20.313Z,4.90
2017-12-10T18:13:46.288Z,3.97
2017-12-10T18:16:12.260Z,4.10
2017-12-10T18:18:38.232Z,4.57
2017-12-10T18:21:04.220Z,4.07
2017-12-10T18:23:30.196Z,3.95
2017-12-10T18:25:56.924Z,3.80
2017-12-10T18:28:23.627Z,4.47
2017-12-10T18:30:49.811Z,3.97
2017-12-10T18:33:15.795Z,4.20
2017-12-10T18:35:41.761Z,3.50
2017-12-10T18:38:07.708Z,3.90
2017-12-10T18:40:33.964Z,3.53
2017-12-10T18:43:00.678Z,3.60
2017-12-10T18:45:26.632Z,3.27
2017-12-10T18:47:53.565Z,3.75
2017-12-10T18:50:19.520Z,3.20
2017-12-10T18:52:45.499Z,3.30
2017-12-10T18:55:11.521Z,3.60
2017-12-10T18:57:37.492Z,3.10
2017-12-10T19:00:03.484Z,3.00
2017-12-10T19:02:29.507Z,3.45
2017-12-10T19:04:56.216Z,3.60
2017-12-10T19:07:22.192Z,3.40
2017-12-10T19:09:48.203Z,3.50
2017-12-10T19:12:14.178Z,3.83
2017-12-10T19:14:40.193Z,3.20
2017-12-10T19:17:06.177Z,3.50
2017-12-10T19:19:32.193Z,3.90
2017-12-10T19:21:58.193Z,3.70
2017-12-10T19:24:24.897Z,3.50
2017-12-10T19:26:50.889Z,3.70
2017-12-10T19:29:16.882Z,3.45
2017-12-10T19:31:42.935Z,3.70
2017-12-10T19:34:08.903Z,4.03
2017-12-10T19:36:35.621Z,4.00
2017-12-10T19:39:01.600Z,3.50
2017-12-10T19:41:27.584Z,3.60
2017-12-10T19:43:54.381Z,3.50
2017-12-10T19:46:20.537Z,3.62
2017-12-10T19:48:46.521Z,3.85
2017-12-10T19:51:12.523Z,3.00
2017-12-10T19:53:38.500Z,3.40
2017-12-10T19:56:05.208Z,3.50
2017-12-10T19:58:31.646Z,3.60
2017-12-10T20:00:57.676Z,3.50
2017-12-10T20:03:23.649Z,3.37
2017-12-10T20:05:49.693Z,3.30
2017-12-10T20:08:15.656Z,3.70
2017-12-10T20:10:42.372Z,3.67
2017-12-10T20:13:08.683Z,3.22
2017-12-10T20:15:34.653Z,3.60
2017-12-10T20:18:01.377Z,3.80
2017-12-10T20:20:27.531Z,3.97
2017-12-10T20:22:53.516Z,3.62
2017-12-10T20:25:19.533Z,3.87
2017-12-10T20:27:45.519Z,4.30
2017-12-10T20:30:11.510Z,3.50
2017-12-10T20:32:38.205Z,4.03
2017-12-10T20:35:04.481Z,3.90
2017-12-10T20:37:30.434Z,3.75
2017-12-10T20:39:56.388Z,4.30
2017-12-10T20:42:23.137Z,4.12
2017-12-10T20:44:51.168Z,4.80
2017-12-10T20:47:17.276Z,4.10
2017-12-10T20:49:43.278Z,3.90
2017-12-10T20:52:10.466Z,4.15
2017-12-10T20:54:36.441Z,4.05
2017-12-10T20:57:02.444Z,3.83
2017-12-10T20:59:29.182Z,4.07
2017-12-10T21:01:55.894Z,4.50
2017-12-10T21:04:22.236Z,3.90
2017-12-10T21:06:48.232Z,4.47
2017-12-10T21:09:14.189Z,4.03
2017-12-10T21:11:41.054Z,4.30
2017-12-10T21:14:07.050Z,4.00
2017-12-10T21:16:33.024Z,3.90
2017-12-10T21:18:59.078Z,4.00
2017-12-10T21:21:25.057Z,3.92
2017-12-10T21:23:51.042Z,4.00
2017-12-10T21:26:17.818Z,4.30
2017-12-10T21:28:43.805Z,4.30
2017-12-10T21:31:10.538Z,3.78
2017-12-10T21:33:36.512Z,3.50
2017-12-10T21:36:02.720Z,3.53
2017-12-10T21:38:28.701Z,4.20
2017-12-10T21:40:54.689Z,3.60
2017-12-10T21:43:20.651Z,3.60
2017-12-10T21:45:46.722Z,3.92
2017-12-10T21:48:13.413Z,3.90
2017-12-10T21:50:39.368Z,3.65
2017-12-10T21:53:05.386Z,3.90
2017-12-10T21:55:31.361Z,3.70
2017-12-10T21:57:57.357Z,3.90
2017-12-10T22:00:23.720Z,4.03
2017-12-10T22:02:49.716Z,3.80
2017-12-10T22:05:15.687Z,4.35
2017-12-10T22:07:42.605Z,4.10
2017-12-10T22:10:08.659Z,4.18
2017-12-10T22:12:34.632Z,4.20
2017-12-10T22:15:00.603Z,4.00
2017-12-10T22:17:26.580Z,3.75
2017-12-10T22:19:52.542Z,4.22
2017-12-10T22:22:18.584Z,4.27
2017-12-10T22:24:44.550Z,3.92
2017-12-10T22:27:10.533Z,3.50
2017-12-10T22:29:36.812Z,3.80
2017-12-10T22:32:05.862Z,3.72
2017-12-10T22:34:31.867Z,3.40
2017-12-10T22:36:58.132Z,3.70
2017-12-10T22:39:24.125Z,3.60
2017-12-10T22:41:50.088Z,3.80
2017-12-10T22:44:16.173Z,3.70
2017-12-10T22:46:42.136Z,3.60
2017-12-10T22:49:08.859Z,4.20
2017-12-10T22:51:34.996Z,3.60
2017-12-10T22:54:01.712Z,3.60
2017-12-10T22:56:27.681Z,3.60
2017-12-10T22:58:53.656Z,3.62
2017-12-10T23:01:19.647Z,3.70
2017-12-10T23:03:52.882Z,3.60
2017-12-10T23:06:18.852Z,3.70
2017-12-10T23:08:44.895Z,3.90
2017-12-10T23:11:10.890Z,3.50
2017-12-10T23:13:49.034Z,3.78
2017-12-10T23:16:27.505Z,3.47
2017-12-10T23:18:53.471Z,3.70
2017-12-10T23:21:19.480Z,3.40
2017-12-10T23:23:45.812Z,3.35
2017-12-10T23:26:11.790Z,3.42
2017-12-10T23:28:37.772Z,4.05
2017-12-10T23:31:03.815Z,3.45
2017-12-10T23:33:30.569Z,3.90
2017-12-10T23:35:57.294Z,3.80
2017-12-10T23:38:24.020Z,4.00
2017-12-10T23:40:50.013Z,4.05
2017-12-10T23:43:15.981Z,3.90
2017-12-10T23:45:42.235Z,3.90
2017-12-10T23:48:08.212Z,3.60
2017-12-10T23:50:34.920Z,3.95
2017-12-10T23:53:00.971Z,4.30
2017-12-10T23:55:26.938Z,4.30
2017-12-10T23:57:52.903Z,4.07
